Welcome to Northern Hawkes Bay. New Zealand.
PWS Header
      nz Flag



Hit Counter


W3C Valid W3C Valid logo


    Wairoa

Select any of the Stations below to visit their websites.










Historic Data from Weather Underground
Select the location of interest below. Wairoa is the default. Please have patience, this Data is slow to load in.
Northern Hawkes Bay Historical Data
Daily Summary for February 4, 2017 Units:  Metric    English   Both
« Previous Day
Next Day »
Daily Weekly Monthly Yearly Custom
  High: Low: Average:
Temperature: 25.1 °C 12.8 °C 19.2 °C
Dew Point: 15.7 °C 6.7 °C 12.7 °C
Humidity: 97% 35% 69%
Wind Speed: 14.8km/h 0.0km/h 5.5km/h
Wind Gust: 24.5km/h - -
Wind- - SW
Pressure: 1017.2 hPa 1012.4 hPa -
Precipitation: 0.0 mm    
Historical Graphs
 
 
Tabular Data for February 4, 2017
Time Temperature Dew Point Pressure Wind Wind Speed Wind Gust Humidity Rainfall Rate (Hourly) solar
00:00 16.7 °C 13.6 °C 1013.8 hPa NNW 2.6 km/h 5.0 km/h 82% 0.0 mm 0 W/m2
00:05 16.6 °C 13.7 °C 1013.8 hPa North 2.6 km/h 6.1 km/h 83% 0.0 mm 0 W/m2
00:10 16.6 °C 13.7 °C 1013.8 hPa Calm   6.1 km/h 83% 0.0 mm 0 W/m2
00:15 16.5 °C 13.6 °C 1013.8 hPa Calm   5.0 km/h 83% 0.0 mm 0 W/m2
00:20 16.3 °C 13.4 °C 1013.8 hPa Calm   2.6 km/h 83% 0.0 mm 0 W/m2
00:25 16.2 °C 13.3 °C 1013.8 hPa Calm   1.1 km/h 83% 0.0 mm 0 W/m2
00:30 16.1 °C 13.4 °C 1013.8 hPa NW 1.1 km/h 2.6 km/h 84% 0.0 mm 0 W/m2
00:35 16.0 °C 13.3 °C 1013.8 hPa NW 1.1 km/h 3.5 km/h 84% 0.0 mm 0 W/m2
00:40 15.9 °C 13.4 °C 1013.4 hPa NW 3.5 km/h 5.0 km/h 85% 0.0 mm 0 W/m2
00:45 15.9 °C 13.6 °C 1013.8 hPa NW 3.5 km/h 6.1 km/h 86% 0.0 mm 0 W/m2
00:50 16.0 °C 13.7 °C 1013.4 hPa NNW 2.6 km/h 6.1 km/h 86% 0.0 mm 0 W/m2
00:55 15.9 °C 13.6 °C 1013.4 hPa NNW 2.6 km/h 6.1 km/h 86% 0.0 mm 0 W/m2
01:00 15.9 °C 13.6 °C 1013.4 hPa NW 1.1 km/h 5.0 km/h 86% 0.0 mm 0 W/m2
01:05 15.9 °C 13.6 °C 1013.4 hPa NNW 1.1 km/h 5.0 km/h 86% 0.0 mm 0 W/m2
01:10 15.9 °C 13.6 °C 1013.4 hPa North 2.6 km/h 5.0 km/h 86% 0.0 mm 0 W/m2
01:15 15.9 °C 13.6 °C 1013.4 hPa North 2.6 km/h 5.0 km/h 86% 0.0 mm 0 W/m2
01:20 15.8 °C 13.4 °C 1013.4 hPa NNW 1.1 km/h 5.0 km/h 86% 0.0 mm 0 W/m2
01:25 15.7 °C 13.6 °C 1013.4 hPa Calm   5.0 km/h 87% 0.0 mm 0 W/m2
01:30 15.5 °C 13.2 °C 1013.1 hPa NW 1.1 km/h 3.5 km/h 86% 0.0 mm 0 W/m2
01:35 15.3 °C 13.0 °C 1013.1 hPa Calm   3.5 km/h 86% 0.0 mm 0 W/m2
01:40 15.3 °C 13.2 °C 1013.1 hPa NNW 1.1 km/h 7.2 km/h 87% 0.0 mm 0 W/m2
01:45 15.4 °C 13.4 °C 1013.1 hPa NNW 5.0 km/h 8.7 km/h 88% 0.0 mm 0 W/m2
01:50 15.5 °C 13.6 °C 1013.1 hPa NNW 6.1 km/h 9.7 km/h 88% 0.0 mm 0 W/m2
01:55 15.6 °C 13.6 °C 1013.1 hPa NNW 2.6 km/h 9.7 km/h 88% 0.0 mm 0 W/m2
02:00 15.5 °C 13.3 °C 1013.1 hPa Calm   6.1 km/h 87% 0.0 mm 0 W/m2
02:05 15.4 °C 13.3 °C 1013.1 hPa Calm   5.0 km/h 87% 0.0 mm 0 W/m2
02:10 15.3 °C 13.2 °C 1012.8 hPa North 3.5 km/h 6.1 km/h 87% 0.0 mm 0 W/m2
02:15 15.3 °C 13.3 °C 1013.1 hPa NNW 3.5 km/h 7.2 km/h 88% 0.0 mm 0 W/m2
02:20 15.2 °C 13.2 °C 1013.1 hPa NNW 5.0 km/h 7.2 km/h 88% 0.0 mm 0 W/m2
02:25 15.4 °C 13.4 °C 1012.8 hPa NNW 2.6 km/h 8.7 km/h 88% 0.0 mm 0 W/m2
02:30 15.3 °C 13.3 °C 1012.8 hPa NW 3.5 km/h 8.7 km/h 88% 0.0 mm 0 W/m2
02:35 15.3 °C 13.3 °C 1012.8 hPa NW 1.1 km/h 7.2 km/h 88% 0.0 mm 0 W/m2
02:40 15.2 °C 13.2 °C 1012.8 hPa Calm   7.2 km/h 88% 0.0 mm 0 W/m2
02:45 15.1 °C 13.1 °C 1012.8 hPa North 1.1 km/h 3.5 km/h 88% 0.0 mm 0 W/m2
02:50 15.2 °C 13.4 °C 1012.8 hPa North 2.6 km/h 6.1 km/h 89% 0.0 mm 0 W/m2
02:55 15.2 °C 13.4 °C 1012.4 hPa North 1.1 km/h 6.1 km/h 89% 0.0 mm 0 W/m2
03:00 15.2 °C 13.4 °C 1012.4 hPa North 2.6 km/h 6.1 km/h 89% 0.0 mm 0 W/m2
03:05 15.2 °C 13.4 °C 1012.4 hPa North 1.1 km/h 6.1 km/h 89% 0.0 mm 0 W/m2
03:10 15.1 °C 13.3 °C 1012.4 hPa NNW 2.6 km/h 6.1 km/h 89% 0.0 mm 0 W/m2
03:15 15.0 °C 13.2 °C 1012.4 hPa NW 3.5 km/h 6.1 km/h 89% 0.0 mm 0 W/m2
03:20 14.9 °C 13.3 °C 1012.8 hPa NW 2.6 km/h 5.0 km/h 90% 0.0 mm 0 W/m2
03:25 14.7 °C 13.1 °C 1012.4 hPa NW 2.6 km/h 5.0 km/h 90% 0.0 mm 0 W/m2
03:30 14.5 °C 12.9 °C 1012.4 hPa NW 6.1 km/h 7.2 km/h 90% 0.0 mm 0 W/m2
03:35 14.3 °C 12.8 °C 1012.8 hPa NW 5.0 km/h 7.2 km/h 91% 0.0 mm 0 W/m2
03:40 14.3 °C 13.0 °C 1012.8 hPa NW 2.6 km/h 7.2 km/h 92% 0.0 mm 0 W/m2
03:45 14.2 °C 12.9 °C 1012.8 hPa NW 2.6 km/h 6.1 km/h 92% 0.0 mm 0 W/m2
03:50 14.1 °C 12.8 °C 1012.8 hPa NW 3.5 km/h 7.2 km/h 92% 0.0 mm 0 W/m2
03:55 14.0 °C 12.9 °C 1012.8 hPa NW 5.0 km/h 7.2 km/h 93% 0.0 mm 0 W/m2
04:00 13.9 °C 13.1 °C 1012.8 hPa NNW 2.6 km/h 6.1 km/h 95% 0.0 mm 0 W/m2
04:05 13.8 °C 13.0 °C 1012.8 hPa Calm   6.1 km/h 95% 0.0 mm 0 W/m2
04:23 13.7 °C 13.1 °C 1012.8 hPa NNW 2.6 km/h 6.1 km/h 96% 0.0 mm 0 W/m2
04:28 13.7 °C 13.1 °C 1012.8 hPa NNW 3.5 km/h 6.1 km/h 96% 0.0 mm 0 W/m2
04:33 13.7 °C 13.1 °C 1012.8 hPa NNW 3.5 km/h 6.1 km/h 96% 0.0 mm 0 W/m2
04:38 13.6 °C 13.0 °C 1012.8 hPa NW 6.1 km/h 8.7 km/h 96% 0.0 mm 0 W/m2
04:43 13.5 °C 12.9 °C 1012.8 hPa NW 5.0 km/h 8.7 km/h 96% 0.0 mm 0 W/m2
04:48 13.5 °C 12.9 °C 1012.8 hPa NW 2.6 km/h 7.2 km/h 96% 0.0 mm 0 W/m2
04:53 13.4 °C 12.8 °C 1012.8 hPa NW 1.1 km/h 7.2 km/h 96% 0.0 mm 0 W/m2
04:58 13.3 °C 12.7 °C 1012.4 hPa NW 5.0 km/h 6.1 km/h 96% 0.0 mm 0 W/m2
05:03 13.3 °C 12.7 °C 1012.8 hPa NW 5.0 km/h 7.2 km/h 96% 0.0 mm 0 W/m2
05:08 13.2 °C 12.6 °C 1012.8 hPa NW 6.1 km/h 7.2 km/h 96% 0.0 mm 0 W/m2
05:13 13.2 °C 12.6 °C 1012.8 hPa NW 5.0 km/h 8.7 km/h 96% 0.0 mm 0 W/m2
05:18 13.2 °C 12.6 °C 1012.8 hPa NNW 5.0 km/h 8.7 km/h 96% 0.0 mm 0 W/m2
05:23 13.3 °C 12.8 °C 1012.8 hPa NW 7.2 km/h 9.7 km/h 97% 0.0 mm 0 W/m2
05:28 13.4 °C 12.9 °C 1012.8 hPa NW 6.1 km/h 11.1 km/h 97% 0.0 mm 0 W/m2
05:33 13.4 °C 12.9 °C 1013.1 hPa NNW 6.1 km/h 11.1 km/h 97% 0.0 mm 0 W/m2
05:38 13.4 °C 12.9 °C 1013.1 hPa NNW 3.5 km/h 9.7 km/h 97% 0.0 mm 0 W/m2
05:43 13.4 °C 12.9 °C 1013.1 hPa NNW 3.5 km/h 8.7 km/h 97% 0.0 mm 0 W/m2
05:48 13.4 °C 12.9 °C 1012.8 hPa NNW 3.5 km/h 8.7 km/h 97% 0.0 mm 0 W/m2
05:53 13.4 °C 12.9 °C 1013.1 hPa NNW 3.5 km/h 7.2 km/h 97% 0.0 mm 0 W/m2
05:55 13.4 °C 12.9 °C 1013.1 hPa NNW 5.0 km/h 7.2 km/h 97% 0.0 mm 0 W/m2
06:00 13.3 °C 12.8 °C 1013.1 hPa NW 2.6 km/h 7.2 km/h 97% 0.0 mm 0 W/m2
06:05 13.2 °C 12.7 °C 1013.1 hPa NNW 2.6 km/h 6.1 km/h 97% 0.0 mm 0 W/m2
06:10 13.1 °C 12.7 °C 1013.1 hPa North 5.0 km/h 7.2 km/h 97% 0.0 mm 0 W/m2
06:15 13.1 °C 12.7 °C 1013.1 hPa NNW 7.2 km/h 11.1 km/h 97% 0.0 mm 0 W/m2
06:20 13.1 °C 12.7 °C 1013.1 hPa NNW 6.1 km/h 11.1 km/h 97% 0.0 mm 0 W/m2
06:25 13.1 °C 12.7 °C 1013.1 hPa NW 6.1 km/h 11.1 km/h 97% 0.0 mm 1 W/m2
06:30 13.0 °C 12.6 °C 1013.1 hPa NW 3.5 km/h 11.1 km/h 97% 0.0 mm 3 W/m2
06:35 12.8 °C 12.3 °C 1013.1 hPa NNW 1.1 km/h 9.7 km/h 97% 0.0 mm 6 W/m2
06:40 12.8 °C 12.3 °C 1013.1 hPa NW 5.0 km/h 9.7 km/h 97% 0.0 mm 11 W/m2
06:45 12.9 °C 12.4 °C 1013.4 hPa WNW 6.1 km/h 8.7 km/h 97% 0.0 mm 14 W/m2
06:50 12.9 °C 12.4 °C 1013.4 hPa WNW 3.5 km/h 9.7 km/h 97% 0.0 mm 18 W/m2
06:55 12.9 °C 12.4 °C 1013.4 hPa NW 3.5 km/h 9.7 km/h 97% 0.0 mm 22 W/m2
07:00 12.9 °C 12.4 °C 1013.4 hPa NNW 7.2 km/h 9.7 km/h 97% 0.0 mm 29 W/m2
07:05 13.0 °C 12.6 °C 1013.4 hPa NW 8.7 km/h 11.1 km/h 97% 0.0 mm 36 W/m2
07:10 13.1 °C 12.7 °C 1013.4 hPa NW 8.7 km/h 12.2 km/h 97% 0.0 mm 26 W/m2
07:15 13.2 °C 12.7 °C 1013.4 hPa NNW 7.2 km/h 14.8 km/h 97% 0.0 mm 29 W/m2
07:20 13.3 °C 12.8 °C 1013.4 hPa NNW 9.7 km/h 14.8 km/h 97% 0.0 mm 85 W/m2
07:25 13.7 °C 13.1 °C 1013.4 hPa NNW 8.7 km/h 12.2 km/h 96% 0.0 mm 108 W/m2
07:30 14.2 °C 13.3 °C 1013.1 hPa NNW 7.2 km/h 13.4 km/h 94% 0.0 mm 111 W/m2
07:35 14.8 °C 13.3 °C 1013.1 hPa NW 5.0 km/h 13.4 km/h 91% 0.0 mm 102 W/m2
07:40 15.1 °C 13.1 °C 1013.4 hPa NW 6.1 km/h 13.4 km/h 88% 0.0 mm 134 W/m2
07:45 15.4 °C 13.1 °C 1013.1 hPa NNW 7.2 km/h 12.2 km/h 86% 0.0 mm 84 W/m2
07:50 15.4 °C 12.9 °C 1013.4 hPa NNW 7.2 km/h 12.2 km/h 85% 0.0 mm 143 W/m2
07:55 15.7 °C 13.2 °C 1013.4 hPa NW 6.1 km/h 12.2 km/h 85% 0.0 mm 159 W/m2
08:00 16.0 °C 13.1 °C 1013.4 hPa NW 8.7 km/h 15.8 km/h 83% 0.0 mm 183 W/m2
08:05 16.2 °C 13.1 °C 1013.4 hPa NW 8.7 km/h 17.2 km/h 82% 0.0 mm 175 W/m2
08:10 16.3 °C 13.2 °C 1013.4 hPa NW 11.1 km/h 17.2 km/h 82% 0.0 mm 174 W/m2
08:15 16.4 °C 13.3 °C 1013.4 hPa NNW 8.7 km/h 17.2 km/h 82% 0.0 mm 201 W/m2
08:20 17.0 °C 13.6 °C 1013.4 hPa NNW 6.1 km/h 17.2 km/h 80% 0.0 mm 230 W/m2
08:25 17.8 °C 13.5 °C 1013.8 hPa NNW 2.6 km/h 17.2 km/h 76% 0.0 mm 244 W/m2
08:30 18.3 °C 13.4 °C 1014.1 hPa NW 5.0 km/h 11.1 km/h 73% 0.0 mm 256 W/m2
08:35 18.7 °C 13.1 °C 1014.1 hPa NW 7.2 km/h 11.1 km/h 70% 0.0 mm 270 W/m2
08:40 19.1 °C 13.1 °C 1014.1 hPa Calm   11.1 km/h 68% 0.0 mm 283 W/m2
08:45 20.0 °C 13.9 °C 1014.1 hPa Calm   9.7 km/h 68% 0.0 mm 298 W/m2
08:50 20.4 °C 13.4 °C 1014.1 hPa NNW 3.5 km/h 6.1 km/h 64% 0.0 mm 313 W/m2
08:55 20.5 °C 13.0 °C 1013.8 hPa NNW 3.5 km/h 8.7 km/h 62% 0.0 mm 329 W/m2
09:00 20.9 °C 13.6 °C 1013.8 hPa North 5.0 km/h 8.7 km/h 63% 0.0 mm 352 W/m2
09:05 21.1 °C 12.3 °C 1013.8 hPa North 5.0 km/h 8.7 km/h 57% 0.0 mm 356 W/m2
09:10 21.1 °C 12.3 °C 1014.1 hPa NNW 5.0 km/h 8.7 km/h 57% 0.0 mm 339 W/m2
09:15 20.9 °C 11.8 °C 1014.1 hPa NNW 3.5 km/h 8.7 km/h 56% 0.0 mm 325 W/m2
09:20 20.9 °C 11.3 °C 1014.1 hPa NNW 8.7 km/h 12.2 km/h 54% 0.0 mm 374 W/m2
09:25 21.2 °C 11.6 °C 1014.1 hPa North 7.2 km/h 12.2 km/h 54% 0.0 mm 370 W/m2
09:30 21.5 °C 11.2 °C 1013.8 hPa NNW 5.0 km/h 12.2 km/h 52% 0.0 mm 451 W/m2
09:35 22.0 °C 10.8 °C 1013.8 hPa NNW 5.0 km/h 11.1 km/h 49% 0.0 mm 462 W/m2
09:40 22.4 °C 10.9 °C 1014.1 hPa NNW 3.5 km/h 9.7 km/h 48% 0.0 mm 365 W/m2
09:45 23.0 °C 10.8 °C 1014.1 hPa NW 1.1 km/h 7.2 km/h 46% 0.0 mm 419 W/m2
09:50 23.5 °C 11.2 °C 1014.4 hPa Calm   5.0 km/h 46% 0.0 mm 514 W/m2
09:55 24.9 °C 11.8 °C 1014.4 hPa ENE 1.1 km/h 5.0 km/h 44% 0.0 mm 463 W/m2
10:00 25.1 °C 11.3 °C 1014.4 hPa SSE 3.5 km/h 8.7 km/h 42% 0.0 mm 512 W/m2
10:05 24.1 °C 10.1 °C 1014.4 hPa South 8.7 km/h 12.2 km/h 41% 0.0 mm 584 W/m2
10:10 23.5 °C 9.5 °C 1014.4 hPa SSW 6.1 km/h 12.2 km/h 41% 0.0 mm 578 W/m2
10:15 23.5 °C 8.0 °C 1014.4 hPa SSW 7.2 km/h 13.4 km/h 37% 0.0 mm 617 W/m2
10:20 23.5 °C 8.0 °C 1014.4 hPa South 6.1 km/h 13.4 km/h 37% 0.0 mm 637 W/m2
10:25 23.6 °C 8.8 °C 1014.8 hPa South 7.2 km/h 11.1 km/h 39% 0.0 mm 661 W/m2
10:30 23.3 °C 8.6 °C 1014.8 hPa South 11.1 km/h 15.8 km/h 39% 0.0 mm 680 W/m2
10:35 22.7 °C 9.5 °C 1014.4 hPa South 5.0 km/h 15.8 km/h 43% 0.0 mm 671 W/m2
10:40 23.0 °C 10.8 °C 1014.4 hPa South 5.0 km/h 15.8 km/h 46% 0.0 mm 716 W/m2
10:45 23.4 °C 10.8 °C 1014.4 hPa South 5.0 km/h 12.2 km/h 45% 0.0 mm 735 W/m2
10:50 23.4 °C 7.5 °C 1014.4 hPa South 8.7 km/h 13.4 km/h 36% 0.0 mm 735 W/m2
10:55 23.2 °C 8.1 °C 1014.4 hPa South 7.2 km/h 13.4 km/h 38% 0.0 mm 754 W/m2
11:00 23.2 °C 6.9 °C 1014.4 hPa South 12.2 km/h 14.8 km/h 35% 0.0 mm 799 W/m2
11:05 23.0 °C 6.7 °C 1014.4 hPa South 11.1 km/h 15.8 km/h 35% 0.0 mm 837 W/m2
11:10 23.3 °C 7.8 °C 1014.4 hPa South 9.7 km/h 15.8 km/h 37% 0.0 mm 856 W/m2
11:15 23.4 °C 8.3 °C 1014.4 hPa South 6.1 km/h 14.8 km/h 38% 0.0 mm 875 W/m2
11:20 23.9 °C 8.3 °C 1014.1 hPa South 6.1 km/h 14.8 km/h 37% 0.0 mm 896 W/m2
11:25 24.1 °C 8.1 °C 1014.1 hPa South 7.2 km/h 12.2 km/h 36% 0.0 mm 880 W/m2
11:30 23.5 °C 8.8 °C 1014.1 hPa South 11.1 km/h 17.2 km/h 39% 0.0 mm 913 W/m2
11:35 23.2 °C 8.1 °C 1014.1 hPa South 9.7 km/h 17.2 km/h 38% 0.0 mm 914 W/m2
11:40 23.2 °C 8.5 °C 1014.4 hPa South 12.2 km/h 17.2 km/h 39% 0.0 mm 920 W/m2
11:45 23.2 °C 9.2 °C 1014.1 hPa SSW 6.1 km/h 17.2 km/h 41% 0.0 mm 932 W/m2
11:50 23.3 °C 8.6 °C 1013.8 hPa SSW 9.7 km/h 18.3 km/h 39% 0.0 mm 941 W/m2
11:55 23.5 °C 9.9 °C 1013.8 hPa South 12.2 km/h 18.3 km/h 42% 0.0 mm 948 W/m2
12:00 23.4 °C 10.1 °C 1014.1 hPa South 8.7 km/h 17.2 km/h 43% 0.0 mm 957 W/m2
12:05 23.1 °C 10.9 °C 1013.8 hPa South 13.4 km/h 20.9 km/h 46% 0.0 mm 946 W/m2
12:10 23.0 °C 11.1 °C 1013.8 hPa SSE 11.1 km/h 20.9 km/h 47% 0.0 mm 954 W/m2
12:15 23.1 °C 10.6 °C 1013.8 hPa SSE 12.2 km/h 19.5 km/h 45% 0.0 mm 968 W/m2
12:20 23.2 °C 8.5 °C 1014.1 hPa South 6.1 km/h 19.5 km/h 39% 0.0 mm 972 W/m2
12:25 23.7 °C 11.4 °C 1013.8 hPa South 8.7 km/h 15.8 km/h 46% 0.0 mm 983 W/m2
12:30 23.9 °C 10.9 °C 1013.8 hPa SSE 9.7 km/h 15.8 km/h 44% 0.0 mm 974 W/m2
12:35 23.7 °C 11.7 °C 1013.8 hPa SSE 12.2 km/h 17.2 km/h 47% 0.0 mm 946 W/m2
12:40 23.3 °C 10.7 °C 1014.1 hPa SSE 13.4 km/h 20.9 km/h 45% 0.0 mm 949 W/m2
12:45 23.1 °C 9.5 °C 1014.1 hPa South 8.7 km/h 20.9 km/h 42% 0.0 mm 986 W/m2
12:50 23.3 °C 11.1 °C 1014.1 hPa South 13.4 km/h 20.9 km/h 46% 0.0 mm 982 W/m2
12:55 23.4 °C 9.8 °C 1014.1 hPa South 6.1 km/h 20.9 km/h 42% 0.0 mm 967 W/m2
13:00 23.5 °C 8.8 °C 1013.8 hPa SSE 12.2 km/h 19.5 km/h 39% 0.0 mm 975 W/m2
13:05 23.4 °C 7.9 °C 1014.1 hPa SSE 6.1 km/h 19.5 km/h 37% 0.0 mm 970 W/m2
13:10 23.5 °C 10.6 °C 1013.8 hPa South 14.8 km/h 20.9 km/h 44% 0.0 mm 969 W/m2
13:15 23.5 °C 10.9 °C 1014.1 hPa South 8.7 km/h 20.9 km/h 45% 0.0 mm 967 W/m2
13:20 23.4 °C 8.7 °C 1013.8 hPa SE 7.2 km/h 19.5 km/h 39% 0.0 mm 958 W/m2
13:25 23.5 °C 9.9 °C 1013.8 hPa SE 8.7 km/h 19.5 km/h 42% 0.0 mm 950 W/m2
13:30 23.5 °C 10.6 °C 1013.8 hPa SE 7.2 km/h 19.5 km/h 44% 0.0 mm 948 W/m2
13:35 23.9 °C 11.3 °C 1013.8 hPa SE 8.7 km/h 18.3 km/h 45% 0.0 mm 944 W/m2
13:40 23.4 °C 10.4 °C 1013.8 hPa SSE 13.4 km/h 18.3 km/h 44% 0.0 mm 934 W/m2
13:45 23.4 °C 10.1 °C 1013.8 hPa SSE 3.5 km/h 24.5 km/h 43% 0.0 mm 832 W/m2
13:50 23.9 °C 11.3 °C 1013.8 hPa SE 9.7 km/h 24.5 km/h 45% 0.0 mm 921 W/m2
13:55 24.2 °C 11.2 °C 1013.8 hPa SE 6.1 km/h 17.2 km/h 44% 0.0 mm 915 W/m2
14:00 24.4 °C 11.1 °C 1013.8 hPa SE 3.5 km/h 17.2 km/h 43% 0.0 mm 911 W/m2
14:05 24.5 °C 10.8 °C 1013.8 hPa SSE 7.2 km/h 15.8 km/h 42% 0.0 mm 905 W/m2
14:10 23.9 °C 12.9 °C 1013.4 hPa SSE 11.1 km/h 19.5 km/h 50% 0.0 mm 892 W/m2
14:15 23.3 °C 13.8 °C 1013.4 hPa SSE 12.2 km/h 19.5 km/h 55% 0.0 mm 880 W/m2
14:20 23.3 °C 12.6 °C 1013.4 hPa SE 12.2 km/h 19.5 km/h 51% 0.0 mm 870 W/m2
14:25 23.6 °C 12.6 °C 1013.8 hPa SE 3.5 km/h 15.8 km/h 50% 0.0 mm 864 W/m2
14:30 23.6 °C 13.8 °C 1013.4 hPa SE 8.7 km/h 17.2 km/h 54% 0.0 mm 858 W/m2
14:35 23.3 °C 14.3 °C 1013.4 hPa SE 8.7 km/h 18.3 km/h 57% 0.0 mm 842 W/m2
14:40 23.3 °C 14.3 °C 1013.4 hPa SE 8.7 km/h 18.3 km/h 57% 0.0 mm 836 W/m2
14:45 23.1 °C 13.8 °C 1013.4 hPa SE 8.7 km/h 18.3 km/h 56% 0.0 mm 829 W/m2
14:50 23.1 °C 14.1 °C 1013.4 hPa SSE 11.1 km/h 18.3 km/h 57% 0.0 mm 809 W/m2
14:55 23.3 °C 14.1 °C 1013.4 hPa SSE 8.7 km/h 18.3 km/h 56% 0.0 mm 804 W/m2
15:00 23.2 °C 14.5 °C 1013.8 hPa SE 6.1 km/h 20.9 km/h 58% 0.0 mm 791 W/m2
15:05 23.3 °C 14.3 °C 1013.8 hPa SE 11.1 km/h 20.9 km/h 57% 0.0 mm 673 W/m2
15:10 23.5 °C 14.5 °C 1013.8 hPa SE 8.7 km/h 19.5 km/h 57% 0.0 mm 770 W/m2
15:15 23.7 °C 14.7 °C 1013.8 hPa SE 11.1 km/h 20.9 km/h 57% 0.0 mm 690 W/m2
15:20 23.6 °C 14.1 °C 1013.8 hPa ESE 9.7 km/h 20.9 km/h 55% 0.0 mm 672 W/m2
15:25 23.3 °C 13.8 °C 1013.8 hPa ESE 7.2 km/h 20.9 km/h 55% 0.0 mm 514 W/m2
15:30 23.9 °C 14.9 °C 1013.8 hPa SE 6.1 km/h 18.3 km/h 57% 0.0 mm 725 W/m2
15:35 24.2 °C 14.6 °C 1013.8 hPa SSE 7.2 km/h 19.5 km/h 55% 0.0 mm 619 W/m2
15:40 23.8 °C 14.5 °C 1013.4 hPa SSE 5.0 km/h 19.5 km/h 56% 0.0 mm 474 W/m2
15:45 24.0 °C 14.1 °C 1013.8 hPa SE 9.7 km/h 19.5 km/h 54% 0.0 mm 672 W/m2
15:50 23.7 °C 14.2 °C 1013.8 hPa SE 7.2 km/h 19.5 km/h 55% 0.0 mm 588 W/m2
15:55 24.1 °C 13.3 °C 1013.4 hPa SE 8.7 km/h 19.5 km/h 51% 0.0 mm 548 W/m2
16:00 24.5 °C 13.4 °C 1013.8 hPa SE 9.7 km/h 21.9 km/h 50% 0.0 mm 652 W/m2
16:05 24.2 °C 14.1 °C 1013.4 hPa SE 12.2 km/h 21.9 km/h 53% 0.0 mm 475 W/m2
16:10 23.7 °C 14.2 °C 1013.4 hPa SSE 2.6 km/h 19.5 km/h 55% 0.0 mm 569 W/m2
16:15 24.5 °C 14.0 °C 1013.8 hPa SSE 7.2 km/h 19.5 km/h 52% 0.0 mm 532 W/m2
16:20 24.2 °C 13.4 °C 1013.8 hPa SSE 7.2 km/h 19.5 km/h 51% 0.0 mm 607 W/m2
16:25 23.9 °C 13.2 °C 1013.8 hPa SSE 8.7 km/h 20.9 km/h 51% 0.0 mm 589 W/m2
16:30 24.1 °C 13.9 °C 1013.8 hPa SSE 8.7 km/h 20.9 km/h 53% 0.0 mm 555 W/m2
16:35 24.1 °C 13.7 °C 1013.8 hPa SSE 7.2 km/h 17.2 km/h 52% 0.0 mm 571 W/m2
16:40 24.4 °C 14.5 °C 1013.8 hPa SSE 6.1 km/h 17.2 km/h 54% 0.0 mm 558 W/m2
16:45 24.8 °C 14.0 °C 1013.8 hPa SE 7.2 km/h 15.8 km/h 51% 0.0 mm 547 W/m2
16:50 24.3 °C 13.2 °C 1013.8 hPa SE 11.1 km/h 20.9 km/h 50% 0.0 mm 533 W/m2
16:55 24.4 °C 13.3 °C 1013.8 hPa ESE 8.7 km/h 20.9 km/h 50% 0.0 mm 518 W/m2
17:00 24.5 °C 12.8 °C 1013.8 hPa SE 8.7 km/h 17.2 km/h 48% 0.0 mm 502 W/m2
17:05 24.6 °C 12.9 °C 1013.8 hPa SE 11.1 km/h 18.3 km/h 48% 0.0 mm 489 W/m2
17:10 24.3 °C 13.6 °C 1013.8 hPa SE 13.4 km/h 18.3 km/h 51% 0.0 mm 471 W/m2
17:15 24.4 °C 14.2 °C 1013.8 hPa SE 8.7 km/h 18.3 km/h 53% 0.0 mm 459 W/m2
17:20 24.4 °C 14.2 °C 1013.8 hPa SSE 6.1 km/h 17.2 km/h 53% 0.0 mm 444 W/m2
17:25 24.4 °C 13.6 °C 1013.8 hPa SE 9.7 km/h 20.9 km/h 51% 0.0 mm 429 W/m2
17:30 24.3 °C 14.4 °C 1013.8 hPa SE 5.0 km/h 20.9 km/h 54% 0.0 mm 412 W/m2
17:35 23.8 °C 14.2 °C 1013.8 hPa SSE 8.7 km/h 23.3 km/h 55% 0.0 mm 397 W/m2
17:54 24.1 °C 14.8 °C 1013.8 hPa SE 8.7 km/h 20.9 km/h 56% 0.0 mm 339 W/m2
17:59 23.5 °C 14.8 °C 1013.8 hPa SSE 7.2 km/h 20.9 km/h 58% 0.0 mm 327 W/m2
18:04 23.4 °C 14.7 °C 1013.8 hPa SSE 12.2 km/h 21.9 km/h 58% 0.0 mm 315 W/m2
18:09 23.3 °C 14.8 °C 1013.8 hPa SSE 7.2 km/h 21.9 km/h 59% 0.0 mm 297 W/m2
18:14 23.5 °C 15.6 °C 1013.8 hPa SSE 3.5 km/h 19.5 km/h 61% 0.0 mm 287 W/m2
18:19 23.4 °C 15.7 °C 1013.8 hPa South 9.7 km/h 20.9 km/h 62% 0.0 mm 272 W/m2
18:24 23.5 °C 15.6 °C 1013.8 hPa South 12.2 km/h 21.9 km/h 61% 0.0 mm 255 W/m2
18:29 23.0 °C 14.6 °C 1013.8 hPa South 8.7 km/h 24.5 km/h 59% 0.0 mm 243 W/m2
18:34 23.1 °C 14.9 °C 1013.8 hPa SSE 8.7 km/h 24.5 km/h 60% 0.0 mm 230 W/m2
18:39 23.2 °C 14.8 °C 1013.8 hPa SE 8.7 km/h 19.5 km/h 59% 0.0 mm 215 W/m2
18:44 22.6 °C 14.7 °C 1013.8 hPa SE 3.5 km/h 19.5 km/h 61% 0.0 mm 98 W/m2
18:49 21.9 °C 14.6 °C 1013.8 hPa SE 12.2 km/h 20.9 km/h 63% 0.0 mm 75 W/m2
18:54 21.9 °C 14.6 °C 1013.8 hPa SE 7.2 km/h 23.3 km/h 63% 0.0 mm 97 W/m2
18:59 22.2 °C 14.6 °C 1013.8 hPa SSE 13.4 km/h 23.3 km/h 62% 0.0 mm 162 W/m2
19:04 22.1 °C 14.7 °C 1014.1 hPa SSE 6.1 km/h 20.9 km/h 63% 0.0 mm 55 W/m2
19:09 21.6 °C 14.0 °C 1014.1 hPa ESE 9.7 km/h 20.9 km/h 62% 0.0 mm 52 W/m2
19:14 21.7 °C 14.1 °C 1014.4 hPa ESE 7.2 km/h 14.8 km/h 62% 0.0 mm 43 W/m2
19:19 21.6 °C 14.0 °C 1014.4 hPa ESE 9.7 km/h 13.4 km/h 62% 0.0 mm 41 W/m2
19:24 21.4 °C 14.1 °C 1014.4 hPa East 5.0 km/h 12.2 km/h 63% 0.0 mm 38 W/m2
19:29 21.2 °C 13.7 °C 1014.4 hPa ESE 6.1 km/h 14.8 km/h 62% 0.0 mm 42 W/m2
19:35 21.4 °C 13.8 °C 1014.4 hPa SE 7.2 km/h 14.8 km/h 62% 0.0 mm 39 W/m2
19:40 21.3 °C 13.7 °C 1014.4 hPa SE 7.2 km/h 14.8 km/h 62% 0.0 mm 61 W/m2
19:45 21.1 °C 13.6 °C 1014.8 hPa ESE 7.2 km/h 17.2 km/h 62% 0.0 mm 30 W/m2
19:50 20.8 °C 13.5 °C 1014.8 hPa ESE 7.2 km/h 17.2 km/h 63% 0.0 mm 27 W/m2
19:55 20.6 °C 13.3 °C 1014.8 hPa East 5.0 km/h 14.8 km/h 63% 0.0 mm 23 W/m2
20:00 20.5 °C 13.2 °C 1014.8 hPa ESE 6.1 km/h 15.8 km/h 63% 0.0 mm 20 W/m2
20:05 20.4 °C 13.1 °C 1014.8 hPa ESE 7.2 km/h 15.8 km/h 63% 0.0 mm 15 W/m2
20:10 20.3 °C 13.3 °C 1014.8 hPa ESE 3.5 km/h 14.8 km/h 64% 0.0 mm 13 W/m2
20:15 20.2 °C 12.9 °C 1015.1 hPa ESE 9.7 km/h 18.3 km/h 63% 0.0 mm 9 W/m2
20:20 20.1 °C 13.1 °C 1014.8 hPa ESE 7.2 km/h 18.3 km/h 64% 0.0 mm 5 W/m2
20:25 20.1 °C 13.1 °C 1015.1 hPa ESE 7.2 km/h 15.8 km/h 64% 0.0 mm 3 W/m2
20:30 20.0 °C 13.2 °C 1015.1 hPa ESE 6.1 km/h 13.4 km/h 65% 0.0 mm 0 W/m2
20:35 19.9 °C 13.4 °C 1015.5 hPa East 1.1 km/h 12.2 km/h 66% 0.0 mm 0 W/m2
20:40 19.7 °C 13.4 °C 1015.5 hPa Calm   7.2 km/h 67% 0.0 mm 0 W/m2
20:45 19.5 °C 13.4 °C 1015.5 hPa Calm   5.0 km/h 68% 0.0 mm 0 W/m2
20:50 19.2 °C 13.2 °C 1015.5 hPa Calm   5.0 km/h 68% 0.0 mm 0 W/m2
20:55 19.0 °C 13.2 °C 1015.8 hPa WNW 2.6 km/h 5.0 km/h 69% 0.0 mm 0 W/m2
21:00 19.0 °C 13.2 °C 1015.8 hPa Calm   7.2 km/h 69% 0.0 mm 0 W/m2
21:05 19.0 °C 13.2 °C 1016.1 hPa Calm   7.2 km/h 69% 0.0 mm 0 W/m2
21:10 18.8 °C 13.4 °C 1015.8 hPa Calm   3.5 km/h 71% 0.0 mm 0 W/m2
21:15 18.6 °C 13.4 °C 1016.1 hPa SW 1.1 km/h 3.5 km/h 72% 0.0 mm 0 W/m2
21:20 18.4 °C 13.5 °C 1016.1 hPa Calm   3.5 km/h 73% 0.0 mm 0 W/m2
21:25 18.3 °C 13.4 °C 1016.1 hPa Calm   2.6 km/h 73% 0.0 mm 0 W/m2
21:30 18.1 °C 13.2 °C 1016.1 hPa Calm   2.6 km/h 73% 0.0 mm 0 W/m2
21:35 17.9 °C 13.2 °C 1016.5 hPa Calm   3.5 km/h 74% 0.0 mm 0 W/m2
21:40 17.7 °C 13.0 °C 1016.5 hPa Calm   3.5 km/h 74% 0.0 mm 0 W/m2
21:45 17.6 °C 12.9 °C 1016.5 hPa Calm   1.1 km/h 74% 0.0 mm 0 W/m2
21:50 17.4 °C 12.7 °C 1016.5 hPa Calm     74% 0.0 mm 0 W/m2
21:55 17.4 °C 12.9 °C 1016.5 hPa Calm     75% 0.0 mm 0 W/m2
22:00 17.4 °C 13.1 °C 1016.8 hPa NNW 5.0 km/h 7.2 km/h 76% 0.0 mm 0 W/m2
22:05 17.2 °C 13.2 °C 1016.8 hPa Calm   7.2 km/h 77% 0.0 mm 0 W/m2
22:10 17.1 °C 13.2 °C 1016.8 hPa NNE 1.1 km/h 7.2 km/h 78% 0.0 mm 0 W/m2
22:15 17.1 °C 13.6 °C 1016.5 hPa NE 2.6 km/h 6.1 km/h 80% 0.0 mm 0 W/m2
22:20 17.1 °C 13.8 °C 1016.5 hPa Calm   6.1 km/h 81% 0.0 mm 0 W/m2
22:25 17.1 °C 13.8 °C 1016.5 hPa NE 1.1 km/h 5.0 km/h 81% 0.0 mm 0 W/m2
22:30 17.1 °C 13.8 °C 1016.5 hPa NNE 3.5 km/h 5.0 km/h 81% 0.0 mm 0 W/m2
22:35 17.0 °C 13.7 °C 1016.5 hPa Calm   6.1 km/h 81% 0.0 mm 0 W/m2
22:40 17.0 °C 13.7 °C 1016.5 hPa North 3.5 km/h 6.1 km/h 81% 0.0 mm 0 W/m2
22:45 16.9 °C 13.8 °C 1016.5 hPa North 2.6 km/h 6.1 km/h 82% 0.0 mm 0 W/m2
22:50 16.7 °C 13.6 °C 1016.8 hPa Calm   6.1 km/h 82% 0.0 mm 0 W/m2
22:55 16.6 °C 13.5 °C 1016.8 hPa NNE 1.1 km/h 3.5 km/h 82% 0.0 mm 0 W/m2
23:00 16.5 °C 13.4 °C 1016.8 hPa NW 3.5 km/h 6.1 km/h 82% 0.0 mm 0 W/m2
23:05 16.4 °C 13.5 °C 1016.8 hPa NW 3.5 km/h 6.1 km/h 83% 0.0 mm 0 W/m2
23:10 16.3 °C 13.4 °C 1016.8 hPa NW 2.6 km/h 7.2 km/h 83% 0.0 mm 0 W/m2
23:15 16.2 °C 13.3 °C 1016.8 hPa NW 3.5 km/h 7.2 km/h 83% 0.0 mm 0 W/m2
23:20 16.2 °C 13.3 °C 1016.8 hPa NNW 2.6 km/h 7.2 km/h 83% 0.0 mm 0 W/m2
23:25 16.2 °C 13.3 °C 1016.8 hPa NNW 3.5 km/h 8.7 km/h 83% 0.0 mm 0 W/m2
23:30 16.2 °C 13.3 °C 1017.2 hPa NNW 2.6 km/h 8.7 km/h 83% 0.0 mm 0 W/m2
23:35 16.1 °C 13.2 °C 1017.2 hPa North 2.6 km/h 7.2 km/h 83% 0.0 mm 0 W/m2
23:40 16.0 °C 13.1 °C 1017.2 hPa North 2.6 km/h 5.0 km/h 83% 0.0 mm 0 W/m2
23:45 15.9 °C 13.2 °C 1017.2 hPa NNW 1.1 km/h 5.0 km/h 84% 0.0 mm 0 W/m2
23:50 15.8 °C 13.3 °C 1017.2 hPa Calm   5.0 km/h 85% 0.0 mm 0 W/m2
23:55 15.7 °C 13.2 °C 1017.2 hPa North 1.1 km/h 3.5 km/h 85% 0.0 mm 0 W/m2
Northern Hawkes Bay. New Zealand Historic Data
Compliments of Weather Underground - 2 mb